Time;durP1;ratioP1;P1;durP2;ratioP2;P2;SDS_P1;SDS_P2;PMS_P1;PMS_P2;Temp;Humidity;BMP_temperature;BMP_pressure;BME280_temperature;BME280_humidity;BME280_pressure;Samples;Min_cycle;Max_cycle;Signal;HPM_P1;HPM_P2
2021/03/15 00:01:08;;;;;;;2.00;1.80;;;4.50;76.90;;;;;;5047848;28;20036;-64
2021/03/15 00:03:37;;;;;;;2.50;2.05;;;4.50;76.80;;;;;;5045045;28;20123;-64
2021/03/15 00:06:05;;;;;;;2.90;2.05;;;4.50;76.90;;;;;;5046002;28;20033;-64
2021/03/15 00:08:31;;;;;;;1.88;1.67;;;4.50;76.90;;;;;;5049913;28;20028;-64
2021/03/15 00:11:00;;;;;;;2.92;2.00;;;4.50;76.90;;;;;;5046135;28;20033;-64
2021/03/15 00:13:26;;;;;;;1.90;1.75;;;4.50;77.00;;;;;;5055803;28;20565;-64
2021/03/15 00:15:56;;;;;;;3.58;2.10;;;4.50;76.90;;;;;;5054979;28;20032;-64
2021/03/15 00:18:23;;;;;;;3.22;1.92;;;4.50;77.10;;;;;;5052920;28;20548;-64
2021/03/15 00:20:53;;;;;;;1.80;1.70;;;4.50;77.20;;;;;;5051558;28;20037;-64
2021/03/15 00:23:22;;;;;;;2.65;1.80;;;4.50;77.00;;;;;;5059339;28;20104;-64
2021/03/15 00:25:50;;;;;;;2.60;1.85;;;4.50;76.90;;;;;;5056768;28;20666;-64
2021/03/15 00:28:23;;;;;;;1.60;1.50;;;4.50;76.90;;;;;;5054995;28;20040;-64
2021/03/15 00:30:53;;;;;;;2.78;1.73;;;4.50;76.90;;;;;;5054436;28;20033;-64
2021/03/15 00:33:23;;;;;;;1.63;1.52;;;4.50;76.90;;;;;;5056320;28;20037;-64
2021/03/15 00:35:51;;;;;;;1.63;1.52;;;4.50;76.70;;;;;;5057533;28;20491;-63
2021/03/15 00:38:21;;;;;;;2.25;1.70;;;4.50;76.90;;;;;;5061050;28;20575;-64
2021/03/15 00:40:47;;;;;;;2.55;1.65;;;4.50;76.70;;;;;;5052081;28;20692;-64
2021/03/15 00:43:17;;;;;;;1.63;1.52;;;4.50;76.60;;;;;;5057693;28;20044;-64
2021/03/15 00:45:50;;;;;;;1.67;1.58;;;4.50;76.70;;;;;;5056318;28;20052;-64
2021/03/15 00:48:23;;;;;;;2.05;1.85;;;4.50;76.70;;;;;;5055227;28;20029;-64
2021/03/15 00:50:50;;;;;;;2.20;1.92;;;4.50;76.60;;;;;;5056177;28;20029;-63
2021/03/15 00:53:23;;;;;;;2.65;1.98;;;4.50;76.60;;;;;;5056682;28;20033;-65
2021/03/15 00:55:56;;;;;;;2.72;1.73;;;4.50;76.60;;;;;;5053860;28;20045;-63
2021/03/15 00:58:22;;;;;;;3.00;2.10;;;4.50;76.60;;;;;;5055988;28;20049;-65
2021/03/15 01:00:50;;;;;;;2.75;2.15;;;4.50;76.50;;;;;;5055111;28;20029;-64
2021/03/15 01:03:20;;;;;;;2.45;2.05;;;4.50;76.50;;;;;;5051938;28;20041;-65
2021/03/15 01:05:50;;;;;;;2.20;2.00;;;4.50;76.60;;;;;;5052178;28;20509;-64
2021/03/15 01:08:19;;;;;;;3.72;2.00;;;4.40;76.90;;;;;;5055664;28;20033;-65
2021/03/15 01:10:47;;;;;;;2.05;1.83;;;4.40;76.70;;;;;;5046387;28;20044;-64
2021/03/15 01:13:16;;;;;;;2.08;1.75;;;4.40;76.70;;;;;;5060589;28;20039;-64
2021/03/15 01:15:43;;;;;;;2.17;1.75;;;4.40;76.90;;;;;;5055969;28;20044;-64
2021/03/15 01:18:13;;;;;;;1.90;1.65;;;4.50;76.90;;;;;;5046481;28;20124;-64
2021/03/15 01:20:41;;;;;;;2.30;1.90;;;4.40;76.70;;;;;;5051802;28;20024;-64
2021/03/15 01:23:07;;;;;;;1.98;1.88;;;4.40;76.80;;;;;;5058086;28;20060;-64
2021/03/15 01:25:40;;;;;;;2.20;2.00;;;4.40;76.80;;;;;;5058082;28;20029;-64
2021/03/15 01:28:14;;;;;;;2.38;1.63;;;4.40;77.10;;;;;;5055068;28;20041;-64
2021/03/15 01:30:41;;;;;;;;;;;4.40;77.30;;;;;;5055698;28;22078;-64
2021/03/15 01:33:09;;;;;;;2.20;1.85;;;4.40;78.60;;;;;;5067639;28;20344;-64
2021/03/15 01:35:38;;;;;;;2.22;1.73;;;4.40;76.90;;;;;;5054653;28;20029;-65
2021/03/15 01:38:08;;;;;;;1.95;1.75;;;4.40;77.10;;;;;;5058272;28;20036;-65
2021/03/15 01:40:39;;;;;;;2.70;1.80;;;4.40;77.30;;;;;;5057790;28;20024;-65
2021/03/15 01:43:10;;;;;;;2.92;1.58;;;4.40;77.20;;;;;;5039278;28;20029;-65
2021/03/15 01:45:41;;;;;;;2.20;1.67;;;4.40;77.10;;;;;;5055098;28;20045;-63
2021/03/15 01:48:14;;;;;;;2.85;1.90;;;4.40;76.90;;;;;;5057411;28;20036;-64
2021/03/15 01:50:46;;;;;;;1.75;1.60;;;4.40;77.00;;;;;;5058329;28;20132;-64
2021/03/15 01:53:12;;;;;;;3.15;1.65;;;4.40;77.10;;;;;;5057325;28;20033;-65
2021/03/15 01:55:43;;;;;;;2.13;1.70;;;4.40;76.80;;;;;;5052319;28;20062;-64
2021/03/15 01:58:15;;;;;;;2.47;1.75;;;4.40;77.00;;;;;;5055097;28;20033;-64
2021/03/15 02:00:48;;;;;;;5.00;1.90;;;4.40;76.90;;;;;;5053675;28;20037;-65
2021/03/15 02:03:16;;;;;;;2.70;1.85;;;4.40;76.90;;;;;;5053221;28;20033;-64
2021/03/15 02:05:42;;;;;;;2.33;1.58;;;4.40;76.70;;;;;;5052685;28;20120;-64
2021/03/15 02:08:12;;;;;;;3.92;1.67;;;4.40;76.60;;;;;;5057537;28;20116;-64
2021/03/15 02:10:38;;;;;;;2.22;2.03;;;4.40;76.70;;;;;;5051767;28;20045;-65
2021/03/15 02:13:24;;;;;;;3.50;1.77;;;4.40;76.60;;;;;;5053325;28;20060;-64
2021/03/15 02:16:17;;;;;;;3.03;1.80;;;4.40;76.90;;;;;;5051253;28;20086;-64
2021/03/15 02:18:54;;;;;;;3.13;1.88;;;4.40;77.00;;;;;;5055887;28;20040;-65
2021/03/15 02:21:45;;;;;;;2.65;2.17;;;4.40;76.70;;;;;;5054920;28;20082;-64
2021/03/15 02:24:51;;;;;;;3.65;2.08;;;4.40;77.10;;;;;;5047522;28;20041;-65
2021/03/15 02:27:45;;;;;;;2.35;2.15;;;4.40;77.10;;;;;;5047509;28;20025;-64
2021/03/15 02:30:29;;;;;;;2.35;2.13;;;4.40;77.30;;;;;;5054898;28;20041;-65
2021/03/15 02:33:24;;;;;;;3.67;2.20;;;4.40;76.90;;;;;;5057295;28;20056;-64
2021/03/15 02:35:54;;;;;;;2.43;2.20;;;4.30;77.00;;;;;;5052383;28;20284;-65
2021/03/15 02:38:25;;;;;;;2.70;2.50;;;4.30;77.00;;;;;;5057350;28;20065;-64
2021/03/15 02:40:56;;;;;;;2.50;2.30;;;4.30;77.20;;;;;;5056814;28;20571;-63
2021/03/15 02:43:54;;;;;;;3.65;2.40;;;4.30;77.20;;;;;;5056179;28;20404;-64
2021/03/15 02:46:23;;;;;;;5.32;2.38;;;4.30;77.60;;;;;;5058706;28;20039;-64
2021/03/15 02:48:52;;;;;;;3.90;2.13;;;4.30;77.10;;;;;;5052220;28;20037;-64
2021/03/15 02:51:22;;;;;;;2.90;2.33;;;4.30;77.10;;;;;;5053563;28;20427;-65
2021/03/15 02:53:48;;;;;;;2.28;2.05;;;4.30;77.30;;;;;;5056589;28;20060;-65
2021/03/15 02:56:23;;;;;;;3.10;2.47;;;4.30;77.20;;;;;;5051698;28;20064;-65
2021/03/15 02:58:53;;;;;;;;;;;4.30;77.10;;;;;;5056108;28;20036;-64
2021/03/15 03:01:22;;;;;;;3.60;2.30;;;4.40;78.00;;;;;;5054252;28;19916;-64
2021/03/15 03:03:50;;;;;;;2.83;2.30;;;4.30;76.80;;;;;;5058222;28;20036;-64
2021/03/15 03:06:20;;;;;;;3.17;2.53;;;4.40;77.00;;;;;;5054429;28;20124;-64
2021/03/15 03:08:50;;;;;;;3.00;2.67;;;4.40;77.00;;;;;;5051218;28;20044;-64
2021/03/15 03:11:19;;;;;;;2.90;2.25;;;4.40;77.10;;;;;;5050203;28;20037;-64
2021/03/15 03:13:48;;;;;;;2.28;2.08;;;4.40;76.90;;;;;;5055698;28;20033;-64
2021/03/15 03:16:16;;;;;;;4.10;2.70;;;4.30;76.90;;;;;;5052766;28;20025;-63
2021/03/15 03:18:47;;;;;;;3.50;2.45;;;4.40;76.90;;;;;;5053981;28;20037;-64
2021/03/15 03:21:13;;;;;;;4.18;2.42;;;4.40;76.70;;;;;;5050549;28;20036;-65
2021/03/15 03:23:41;;;;;;;2.50;2.22;;;4.40;76.70;;;;;;5049136;28;20393;-65
2021/03/15 03:26:10;;;;;;;3.10;2.45;;;4.40;76.70;;;;;;5046455;28;20575;-65
2021/03/15 03:28:37;;;;;;;3.20;2.70;;;4.40;76.50;;;;;;5052237;28;20028;-64
2021/03/15 03:31:06;;;;;;;5.90;2.63;;;4.40;76.50;;;;;;5054809;28;20115;-65
2021/03/15 03:33:35;;;;;;;5.15;2.67;;;4.40;76.50;;;;;;5055573;28;20037;-64
2021/03/15 03:36:04;;;;;;;5.07;2.40;;;4.40;76.40;;;;;;5054980;28;20020;-65
2021/03/15 03:38:32;;;;;;;3.65;2.47;;;4.40;76.40;;;;;;5066549;28;20037;-64
2021/03/15 03:40:59;;;;;;;4.82;2.70;;;4.40;76.40;;;;;;5053384;28;20028;-65
2021/03/15 03:43:32;;;;;;;3.55;2.30;;;4.40;76.40;;;;;;5052960;28;20033;-65
2021/03/15 03:46:03;;;;;;;3.00;2.60;;;4.40;76.40;;;;;;5056139;28;20021;-64
2021/03/15 03:48:35;;;;;;;4.43;2.45;;;4.40;76.40;;;;;;5052882;28;20041;-64
2021/03/15 03:51:01;;;;;;;4.40;2.60;;;4.40;76.40;;;;;;5057540;28;20469;-65
2021/03/15 03:53:53;;;;;;;3.35;2.58;;;4.40;76.40;;;;;;5053374;28;20715;-65
2021/03/15 03:56:40;;;;;;;3.58;2.53;;;4.40;76.80;;;;;;5049606;28;20033;-65
2021/03/15 03:59:10;;;;;;;5.45;2.88;;;4.40;76.80;;;;;;5058385;28;20041;-64
2021/03/15 04:01:43;;;;;;;6.25;2.80;;;4.30;76.40;;;;;;5058787;28;20041;-64
2021/03/15 04:04:11;;;;;;;6.00;2.83;;;4.30;76.40;;;;;;5057607;28;20040;-65
2021/03/15 04:06:41;;;;;;;4.68;2.70;;;4.30;76.50;;;;;;5075502;28;20446;-65
2021/03/15 04:09:17;;;;;;;4.18;2.53;;;4.30;76.60;;;;;;5055669;28;20040;-64
2021/03/15 04:11:50;;;;;;;20.30;11.02;;;4.30;76.70;;;;;;5051515;28;20131;-65
2021/03/15 04:14:42;;;;;;;5.75;3.42;;;4.20;77.10;;;;;;5059621;28;20051;-65
2021/03/15 04:17:15;;;;;;;10.82;6.53;;;4.20;77.40;;;;;;5055743;28;20057;-63
2021/03/15 04:19:52;;;;;;;4.78;3.00;;;4.20;77.30;;;;;;5059833;28;20037;-65
2021/03/15 04:22:22;;;;;;;3.45;2.58;;;4.20;77.40;;;;;;5054267;28;20037;-65
2021/03/15 04:24:52;;;;;;;3.70;2.70;;;4.10;77.40;;;;;;5057530;28;20404;-64
2021/03/15 04:27:21;;;;;;;2.50;2.30;;;4.10;77.40;;;;;;5052193;28;20037;-64
2021/03/15 04:29:48;;;;;;;3.80;2.60;;;4.10;77.60;;;;;;5059496;28;20122;-65
2021/03/15 04:32:16;;;;;;;3.25;2.55;;;4.20;77.60;;;;;;5056794;28;20348;-64
2021/03/15 04:34:45;;;;;;;4.32;1.92;;;4.20;77.80;;;;;;5041665;28;20053;-64
2021/03/15 04:37:16;;;;;;;2.10;1.90;;;4.10;78.00;;;;;;5059664;28;20037;-64
2021/03/15 04:39:47;;;;;;;2.60;2.10;;;4.10;77.70;;;;;;5060964;28;20029;-65
2021/03/15 04:42:16;;;;;;;3.53;2.10;;;4.10;77.80;;;;;;5048566;28;20119;-64
2021/03/15 04:44:42;;;;;;;2.55;2.05;;;4.10;77.90;;;;;;5048743;28;20442;-64
2021/03/15 04:47:12;;;;;;;2.53;2.30;;;4.10;77.80;;;;;;5045437;28;20040;-63
2021/03/15 04:49:41;;;;;;;4.75;2.00;;;4.10;77.90;;;;;;5047578;28;20055;-64
2021/03/15 04:52:07;;;;;;;5.63;3.10;;;4.10;78.00;;;;;;5050990;28;20035;-64
2021/03/15 04:54:35;;;;;;;4.22;3.20;;;4.10;77.80;;;;;;5054466;28;20498;-64
2021/03/15 04:57:06;;;;;;;3.00;2.40;;;4.10;78.00;;;;;;5053930;28;20035;-65
2021/03/15 04:59:37;;;;;;;2.75;2.17;;;4.10;78.10;;;;;;5059194;28;20025;-64
2021/03/15 05:02:04;;;;;;;5.20;2.30;;;4.10;78.10;;;;;;5056053;28;20494;-64
2021/03/15 05:04:37;;;;;;;4.10;2.08;;;4.10;78.00;;;;;;5054091;28;20032;-64
2021/03/15 05:07:04;;;;;;;3.78;2.00;;;4.10;78.30;;;;;;5046188;28;20107;-64
2021/03/15 05:09:31;;;;;;;3.72;2.13;;;4.10;78.30;;;;;;5046441;28;20033;-64
2021/03/15 05:12:00;;;;;;;2.65;2.40;;;4.10;78.30;;;;;;5043437;28;20037;-64
2021/03/15 05:14:31;;;;;;;4.30;2.75;;;4.20;78.60;;;;;;5045724;28;20021;-64
2021/03/15 05:16:59;;;;;;;2.92;2.60;;;4.10;79.30;;;;;;5049682;28;20110;-64
2021/03/15 05:19:25;;;;;;;3.40;2.05;;;4.10;78.50;;;;;;5048364;28;20036;-64
2021/03/15 05:21:51;;;;;;;4.07;2.50;;;4.20;78.60;;;;;;5049639;28;20522;-65
2021/03/15 05:24:22;;;;;;;4.47;2.97;;;4.20;78.50;;;;;;5051160;28;20045;-65
2021/03/15 05:26:48;;;;;;;3.65;2.92;;;4.20;78.60;;;;;;5038742;28;20048;-64
2021/03/15 05:29:18;;;;;;;5.18;3.20;;;4.20;78.50;;;;;;5050976;28;20037;-63
2021/03/15 05:31:46;;;;;;;3.35;2.63;;;4.20;78.70;;;;;;5049152;28;20024;-65
2021/03/15 05:34:17;;;;;;;5.82;2.70;;;4.20;78.80;;;;;;5048179;28;20076;-64
2021/03/15 05:36:45;;;;;;;4.85;2.47;;;4.20;78.80;;;;;;5042896;28;20067;-62
2021/03/15 05:39:11;;;;;;;3.10;2.70;;;4.20;78.60;;;;;;5054467;28;20506;-65
2021/03/15 05:42:09;;;;;;;3.72;2.50;;;4.20;78.70;;;;;;5056939;28;20028;-64
2021/03/15 05:44:56;;;;;;;6.47;3.10;;;4.20;79.30;;;;;;5052140;28;20033;-64
2021/03/15 05:47:39;;;;;;;5.82;3.08;;;4.20;79.20;;;;;;5058399;28;20099;-65
2021/03/15 05:50:11;;;;;;;3.58;2.97;;;4.20;78.90;;;;;;5041735;28;20035;-65
2021/03/15 05:53:02;;;;;;;6.55;2.83;;;4.30;78.60;;;;;;5058839;28;20515;-65
2021/03/15 05:55:49;;;;;;;3.25;2.75;;;4.30;79.20;;;;;;5057626;28;20134;-65
2021/03/15 05:58:44;;;;;;;3.45;2.90;;;4.30;79.30;;;;;;5041628;28;20036;-65
2021/03/15 06:01:47;;;;;;;3.53;2.63;;;4.30;79.50;;;;;;5059256;28;20033;-65
2021/03/15 06:04:53;;;;;;;4.68;3.10;;;4.40;79.30;;;;;;5041235;28;20039;-64
2021/03/15 06:07:26;;;;;;;3.05;2.60;;;4.40;79.30;;;;;;5058504;28;20514;-66
2021/03/15 06:10:07;;;;;;;5.03;3.13;;;4.40;78.90;;;;;;5059131;28;20356;-65
2021/03/15 06:12:49;;;;;;;4.05;2.88;;;4.40;79.30;;;;;;5052752;28;20504;-65
2021/03/15 06:15:21;;;;;;;3.72;2.72;;;4.40;79.00;;;;;;5058422;28;20032;-65
2021/03/15 06:17:52;;;;;;;3.90;2.80;;;4.40;78.70;;;;;;5058692;28;20025;-64
2021/03/15 06:20:21;;;;;;;5.32;2.80;;;4.40;78.60;;;;;;5057569;28;20504;-64
2021/03/15 06:22:49;;;;;;;5.20;2.67;;;4.40;78.70;;;;;;5058265;28;20044;-64
2021/03/15 06:25:17;;;;;;;5.60;2.80;;;4.50;78.80;;;;;;5056288;28;20025;-64
2021/03/15 06:27:48;;;;;;;4.93;3.42;;;4.50;78.70;;;;;;5053651;28;20078;-64
2021/03/15 06:30:16;;;;;;;3.92;3.05;;;4.50;78.70;;;;;;5057111;28;20058;-65
2021/03/15 06:32:44;;;;;;;4.88;2.70;;;4.40;78.50;;;;;;5054919;28;20028;-64
2021/03/15 06:35:15;;;;;;;4.28;2.75;;;4.40;78.50;;;;;;5056125;28;20032;-63
2021/03/15 06:37:44;;;;;;;6.70;3.00;;;4.50;78.70;;;;;;5058495;28;20423;-65
2021/03/15 06:40:13;;;;;;;3.75;2.63;;;4.40;78.70;;;;;;5058021;28;20037;-63
2021/03/15 06:42:42;;;;;;;5.15;3.03;;;4.40;78.80;;;;;;5057899;28;20041;-64
2021/03/15 06:45:19;;;;;;;2.80;2.55;;;4.40;79.00;;;;;;5057086;28;20607;-64
2021/03/15 06:47:49;;;;;;;4.18;3.28;;;4.30;80.00;;;;;;5057641;28;20036;-64
2021/03/15 06:50:16;;;;;;;3.90;3.20;;;4.30;79.20;;;;;;5056294;28;20521;-65
2021/03/15 06:52:53;;;;;;;5.10;3.50;;;4.30;79.50;;;;;;5055001;28;20032;-64
2021/03/15 06:55:43;;;;;;;2.78;2.50;;;4.30;79.80;;;;;;5057201;28;20033;-64
2021/03/15 06:58:32;;;;;;;7.85;5.50;;;4.20;79.50;;;;;;5047410;28;20408;-64
2021/03/15 07:01:19;;;;;;;7.88;4.40;;;4.30;80.00;;;;;;5057537;28;20029;-64
2021/03/15 07:03:53;;;;;;;5.60;2.85;;;4.20;80.00;;;;;;5057803;28;20659;-64
2021/03/15 07:06:21;;;;;;;4.87;4.00;;;4.30;79.80;;;;;;5057579;28;20029;-65
2021/03/15 07:08:51;;;;;;;5.60;3.47;;;4.30;79.60;;;;;;5055022;28;20029;-65
2021/03/15 07:11:21;;;;;;;4.82;3.50;;;4.30;79.90;;;;;;5038084;28;20028;-64
2021/03/15 07:13:52;;;;;;;5.88;4.28;;;4.30;79.90;;;;;;5052705;28;20508;-65
2021/03/15 07:16:35;;;;;;;4.20;3.30;;;4.30;80.20;;;;;;5057329;28;20602;-64
2021/03/15 07:19:23;;;;;;;3.28;2.42;;;4.30;80.70;;;;;;5056870;28;20495;-65
2021/03/15 07:21:52;;;;;;;2.97;2.17;;;4.30;80.00;;;;;;5073745;28;20108;-62
2021/03/15 07:24:18;;;;;;;3.47;2.35;;;4.30;80.10;;;;;;5054788;28;20445;-64
2021/03/15 07:26:44;;;;;;;2.88;2.03;;;4.30;80.00;;;;;;5054537;28;20040;-64
2021/03/15 07:29:15;;;;;;;3.25;2.10;;;4.40;80.10;;;;;;5055816;28;20075;-65
2021/03/15 07:31:46;;;;;;;5.90;1.90;;;4.30;80.00;;;;;;5055444;28;20033;-64
2021/03/15 07:34:14;;;;;;;4.53;1.90;;;4.40;80.10;;;;;;5056421;28;20035;-64
2021/03/15 07:36:53;;;;;;;4.80;2.13;;;4.40;79.90;;;;;;5055568;28;20479;-64
2021/03/15 07:39:21;;;;;;;3.70;1.80;;;4.40;80.20;;;;;;5072532;28;20033;-64
2021/03/15 07:41:49;;;;;;;2.67;2.20;;;4.40;80.00;;;;;;5041844;28;20587;-64
2021/03/15 07:44:18;;;;;;;2.38;1.88;;;4.30;80.00;;;;;;5056025;28;20045;-64
2021/03/15 07:46:46;;;;;;;2.55;2.00;;;4.40;80.30;;;;;;5056959;28;20053;-62
2021/03/15 07:49:33;;;;;;;2.05;1.85;;;4.30;80.00;;;;;;5055506;28;20032;-63
2021/03/15 07:52:12;;;;;;;1.45;1.35;;;4.30;80.90;;;;;;5054952;28;20507;-63
2021/03/15 07:54:43;;;;;;;1.52;1.40;;;4.40;80.60;;;;;;5056099;28;20108;-64
2021/03/15 07:57:31;;;;;;;1.52;1.42;;;4.40;80.60;;;;;;5056037;28;20059;-65
2021/03/15 08:00:02;;;;;;;1.45;1.35;;;4.40;81.40;;;;;;5054902;28;20037;-62
2021/03/15 08:02:33;;;;;;;3.72;2.67;;;4.40;80.90;;;;;;5041895;28;20037;-64
2021/03/15 08:04:59;;;;;;;2.60;2.00;;;4.50;81.10;;;;;;5055805;28;20051;-64
2021/03/15 08:07:27;;;;;;;1.73;1.50;;;4.50;81.20;;;;;;5056330;28;20041;-64
2021/03/15 08:09:56;;;;;;;11.25;6.68;;;4.60;81.10;;;;;;5055722;28;20029;-64
2021/03/15 08:12:28;;;;;;;3.13;2.25;;;4.60;81.40;;;;;;5053512;28;20048;-64
2021/03/15 08:15:07;;;;;;;2.30;1.92;;;4.70;82.50;;;;;;5052884;28;20037;-64
2021/03/15 08:17:43;;;;;;;3.60;2.45;;;4.70;81.40;;;;;;5055894;28;20026;-64
2021/03/15 08:20:12;;;;;;;2.20;1.75;;;4.80;80.90;;;;;;5053827;28;20032;-64
2021/03/15 08:22:45;;;;;;;1.10;0.90;;;4.80;80.90;;;;;;5055437;28;20116;-64
2021/03/15 08:25:14;;;;;;;1.10;1.00;;;4.80;80.90;;;;;;5055675;28;20342;-64
2021/03/15 08:27:43;;;;;;;0.80;0.80;;;4.90;80.70;;;;;;5056012;28;20129;-64
2021/03/15 08:30:22;;;;;;;1.05;0.80;;;5.00;81.10;;;;;;5055359;28;20423;-64
2021/03/15 08:32:48;;;;;;;0.77;0.77;;;5.00;81.10;;;;;;5056541;28;20336;-64
2021/03/15 08:35:17;;;;;;;1.38;0.70;;;5.00;80.90;;;;;;5056196;28;20033;-64
2021/03/15 08:38:05;;;;;;;0.98;0.77;;;5.10;80.80;;;;;;5051315;28;20116;-65
2021/03/15 08:40:51;;;;;;;0.70;0.68;;;5.20;81.40;;;;;;5055807;28;20064;-65
2021/03/15 08:43:17;;;;;;;0.70;0.70;;;5.20;80.90;;;;;;5057947;28;20037;-64
2021/03/15 08:45:58;;;;;;;1.00;0.90;;;5.30;80.40;;;;;;5059747;28;20562;-64
2021/03/15 08:48:32;;;;;;;0.70;0.70;;;5.30;80.20;;;;;;5059361;28;20442;-64
2021/03/15 08:51:04;;;;;;;0.80;0.70;;;5.30;80.00;;;;;;5058514;28;20066;-65
2021/03/15 08:53:36;;;;;;;0.70;0.70;;;5.40;79.70;;;;;;5059047;28;20041;-65
2021/03/15 08:56:23;;;;;;;0.65;0.65;;;5.40;79.70;;;;;;5058814;28;20403;-65
2021/03/15 08:58:50;;;;;;;0.80;0.80;;;5.30;80.00;;;;;;5037192;28;20041;-65
2021/03/15 09:01:18;;;;;;;0.63;0.63;;;5.30;79.00;;;;;;5036598;28;20045;-64
2021/03/15 09:03:54;;;;;;;1.10;0.90;;;5.30;79.10;;;;;;5039367;28;20413;-64
2021/03/15 09:09:12;;;;;;;0.98;0.90;;;5.20;79.70;;;;;;5035839;28;20112;-65
2021/03/15 09:11:49;;;;;;;1.45;0.85;;;5.20;79.80;;;;;;5049252;28;20030;-64
2021/03/15 09:14:25;;;;;;;1.95;1.00;;;5.20;79.70;;;;;;5037957;28;20037;-64
2021/03/15 09:16:57;;;;;;;0.80;0.80;;;5.20;79.90;;;;;;5056989;28;20488;-64
2021/03/15 09:19:26;;;;;;;1.48;0.80;;;5.20;80.00;;;;;;5030998;28;20037;-64
2021/03/15 09:22:03;;;;;;;1.00;1.00;;;5.20;80.20;;;;;;5044532;28;20091;-64
2021/03/15 09:24:46;;;;;;;1.98;1.10;;;5.20;80.30;;;;;;5057321;28;20074;-64
2021/03/15 09:27:22;;;;;;;1.98;1.17;;;5.20;81.10;;;;;;5057778;28;20037;-64
2021/03/15 09:30:08;;;;;;;2.20;1.63;;;5.30;80.70;;;;;;5057710;28;20033;-65
2021/03/15 09:32:37;;;;;;;;;;;5.40;81.20;;;;;;5038651;28;20401;-64
2021/03/15 09:35:23;;;;;;;1.00;0.88;;;5.50;81.80;;;;;;5037357;28;19913;-65
2021/03/15 09:37:52;;;;;;;1.30;0.95;;;5.50;80.90;;;;;;5037110;28;20030;-64
2021/03/15 09:40:25;;;;;;;1.50;1.40;;;5.60;80.50;;;;;;5037941;28;20037;-64
2021/03/15 09:42:51;;;;;;;1.70;1.40;;;5.60;80.50;;;;;;5039841;28;20037;-64
2021/03/15 09:45:35;;;;;;;2.10;1.10;;;5.70;80.30;;;;;;5044986;28;20045;-64
2021/03/15 09:48:26;;;;;;;0.80;0.80;;;5.70;80.60;;;;;;5037027;28;20647;-64
2021/03/15 09:50:53;;;;;;;1.08;0.98;;;5.70;80.40;;;;;;5038617;28;20033;-65
2021/03/15 09:53:21;;;;;;;0.90;0.90;;;5.70;80.00;;;;;;5038045;28;20524;-64
2021/03/15 09:55:50;;;;;;;1.10;1.00;;;5.80;80.00;;;;;;5036381;28;20060;-64
2021/03/15 09:58:17;;;;;;;0.80;0.80;;;5.80;80.00;;;;;;5035479;28;20402;-64
2021/03/15 10:00:46;;;;;;;0.88;0.88;;;5.70;79.70;;;;;;5036223;28;20029;-65
2021/03/15 10:03:28;;;;;;;1.13;1.02;;;5.80;79.50;;;;;;5036338;28;20106;-64
2021/03/15 10:05:59;;;;;;;0.90;0.90;;;5.70;79.60;;;;;;5037890;28;20037;-64
2021/03/15 10:08:29;;;;;;;1.23;1.13;;;5.70;79.20;;;;;;5038733;28;20041;-64
2021/03/15 10:10:57;;;;;;;1.00;0.90;;;5.70;79.00;;;;;;5031006;28;20439;-64
2021/03/15 10:13:23;;;;;;;1.20;1.10;;;5.70;79.20;;;;;;5035924;28;20033;-65
2021/03/15 10:15:48;;;;;;;1.50;1.40;;;5.60;79.00;;;;;;5036862;28;20128;-62
2021/03/15 10:18:23;;;;;;;2.90;2.03;;;5.60;79.10;;;;;;5036616;28;20033;-64
2021/03/15 10:20:50;;;;;;;;;;;5.60;79.70;;;;;;5034475;28;20034;-64
2021/03/15 10:23:21;;;;;;;1.40;1.15;;;5.60;80.70;;;;;;5035995;28;20007;-64
2021/03/15 10:26:10;;;;;;;1.20;1.10;;;5.60;79.90;;;;;;5038819;28;20064;-64
2021/03/15 10:28:36;;;;;;;1.25;1.15;;;5.60;80.60;;;;;;5036901;28;20028;-64
2021/03/15 10:31:07;;;;;;;0.90;0.90;;;5.60;80.20;;;;;;5036284;28;20048;-63
2021/03/15 10:33:35;;;;;;;1.00;0.90;;;5.70;81.30;;;;;;5036184;28;20404;-64
2021/03/15 10:36:04;;;;;;;0.73;0.73;;;5.70;81.10;;;;;;5033529;28;20026;-65
2021/03/15 10:38:32;;;;;;;0.60;0.60;;;5.70;81.40;;;;;;5034816;28;20041;-64
2021/03/15 10:41:03;;;;;;;0.50;0.50;;;5.80;81.50;;;;;;5037214;28;20030;-65
2021/03/15 10:43:34;;;;;;;0.47;0.47;;;5.90;82.80;;;;;;5048306;28;20037;-64
2021/03/15 10:46:23;;;;;;;1.90;0.70;;;6.00;82.00;;;;;;5037632;28;20025;-65
2021/03/15 10:48:52;;;;;;;0.73;0.52;;;6.00;82.10;;;;;;5037669;28;20029;-64
2021/03/15 10:51:22;;;;;;;0.50;0.50;;;6.10;81.80;;;;;;5035055;28;20048;-64
2021/03/15 10:53:59;;;;;;;0.50;0.50;;;6.20;81.70;;;;;;5037715;28;20049;-64
2021/03/15 10:56:27;;;;;;;0.30;0.30;;;6.30;81.40;;;;;;5052706;28;20404;-64
2021/03/15 10:58:53;;;;;;;0.85;0.50;;;6.30;81.10;;;;;;5057061;28;20396;-64
2021/03/15 11:01:27;;;;;;;1.30;0.63;;;6.40;81.20;;;;;;5055450;28;20037;-65
2021/03/15 11:04:10;;;;;;;0.70;0.50;;;6.50;81.30;;;;;;5056546;28;20029;-65
2021/03/15 11:06:38;;;;;;;0.40;0.40;;;6.50;81.20;;;;;;5055681;28;20030;-65
2021/03/15 11:09:06;;;;;;;0.50;0.43;;;6.60;81.20;;;;;;5056652;28;20128;-65
2021/03/15 11:11:32;;;;;;;0.38;0.30;;;6.70;80.90;;;;;;5053248;28;20076;-65
2021/03/15 11:14:10;;;;;;;0.30;0.30;;;6.70;81.00;;;;;;5042695;28;20079;-64
2021/03/15 11:16:36;;;;;;;0.22;0.20;;;6.80;80.80;;;;;;5036153;28;20037;-65
2021/03/15 11:19:05;;;;;;;0.70;0.52;;;6.90;80.30;;;;;;5036853;28;20037;-65
2021/03/15 11:21:37;;;;;;;0.63;0.60;;;6.90;80.30;;;;;;5036670;28;20068;-65
2021/03/15 11:24:08;;;;;;;0.50;0.40;;;7.00;80.10;;;;;;5036783;28;20040;-64
2021/03/15 11:26:49;;;;;;;0.50;0.50;;;7.00;80.10;;;;;;5036475;28;20076;-64
2021/03/15 11:29:20;;;;;;;0.28;0.20;;;7.00;79.80;;;;;;5036368;28;20037;-65
2021/03/15 11:31:51;;;;;;;0.22;0.20;;;7.10;79.60;;;;;;5036098;28;20022;-65
2021/03/15 11:34:23;;;;;;;0.75;0.50;;;7.10;79.30;;;;;;5037152;28;20045;-65
2021/03/15 11:36:50;;;;;;;0.30;0.30;;;7.20;79.60;;;;;;5036585;28;20029;-65
2021/03/15 11:39:22;;;;;;;0.63;0.47;;;7.20;79.40;;;;;;5031796;28;20033;-65
2021/03/15 11:41:50;;;;;;;0.43;0.40;;;7.20;79.30;;;;;;5018861;28;20039;-65
2021/03/15 11:44:18;;;;;;;0.50;0.50;;;7.30;78.90;;;;;;5035931;28;20037;-65
2021/03/15 11:46:44;;;;;;;0.40;0.40;;;7.30;78.80;;;;;;5035449;28;20041;-65
2021/03/15 11:49:09;;;;;;;0.45;0.45;;;7.30;78.70;;;;;;5037147;28;20048;-65
2021/03/15 11:51:37;;;;;;;0.85;0.50;;;7.30;78.60;;;;;;5035769;28;20479;-65
2021/03/15 11:54:03;;;;;;;0.77;0.40;;;7.30;78.30;;;;;;5035641;28;20034;-65
2021/03/15 11:56:29;;;;;;;0.70;0.50;;;7.40;78.30;;;;;;5035231;28;20112;-65
2021/03/15 11:58:59;;;;;;;1.25;0.57;;;7.30;78.10;;;;;;5036054;28;20034;-65
2021/03/15 12:01:24;;;;;;;0.70;0.50;;;7.30;78.40;;;;;;5034718;28;20034;-64
2021/03/15 12:03:50;;;;;;;0.90;0.70;;;7.40;78.20;;;;;;5035499;28;20036;-64
2021/03/15 12:06:16;;;;;;;1.52;0.70;;;7.40;78.40;;;;;;5036579;28;20030;-65
2021/03/15 12:08:46;;;;;;;0.60;0.60;;;7.40;78.20;;;;;;5035648;28;20258;-65
2021/03/15 12:11:12;;;;;;;1.05;0.80;;;7.50;78.50;;;;;;5031800;28;20042;-65
2021/03/15 12:13:39;;;;;;;0.93;0.82;;;7.50;78.20;;;;;;5035792;28;20044;-65
2021/03/15 12:16:05;;;;;;;1.48;0.70;;;7.50;78.00;;;;;;5035330;28;20057;-65
2021/03/15 12:18:33;;;;;;;1.05;0.70;;;7.60;77.70;;;;;;5036167;28;20067;-65
2021/03/15 12:21:04;;;;;;;1.63;0.90;;;7.60;77.80;;;;;;5040023;28;20060;-64
2021/03/15 12:23:29;;;;;;;1.25;1.08;;;7.60;77.50;;;;;;5039290;28;20116;-65
2021/03/15 12:26:00;;;;;;;1.02;0.80;;;7.60;77.70;;;;;;5039435;28;20109;-64
2021/03/15 12:28:28;;;;;;;0.88;0.88;;;7.70;77.90;;;;;;5038989;28;20033;-64
2021/03/15 12:30:55;;;;;;;0.90;0.85;;;7.60;77.90;;;;;;5040599;28;20116;-64
2021/03/15 12:33:25;;;;;;;0.80;0.80;;;7.60;77.70;;;;;;5039958;28;20449;-65
2021/03/15 12:35:51;;;;;;;1.00;0.93;;;7.60;77.60;;;;;;5038401;28;20495;-64
2021/03/15 12:38:17;;;;;;;0.80;0.80;;;7.60;77.70;;;;;;5040050;28;20048;-65
2021/03/15 12:40:42;;;;;;;1.15;0.98;;;7.50;77.50;;;;;;5039339;28;20056;-64
2021/03/15 12:43:10;;;;;;;0.77;0.77;;;7.50;77.50;;;;;;5038378;28;20048;-65
2021/03/15 12:45:38;;;;;;;0.50;0.50;;;7.40;77.80;;;;;;5040259;28;20116;-64
2021/03/15 12:48:04;;;;;;;0.70;0.60;;;7.40;77.40;;;;;;5038656;28;20504;-64
2021/03/15 12:50:29;;;;;;;2.33;1.02;;;7.30;77.50;;;;;;5038439;28;20037;-65
2021/03/15 12:53:00;;;;;;;0.95;0.95;;;7.30;78.00;;;;;;5036806;28;20327;-64
2021/03/15 12:55:30;;;;;;;0.50;0.50;;;7.20;78.60;;;;;;5037780;28;20044;-64
2021/03/15 12:58:03;;;;;;;1.40;0.90;;;7.20;78.60;;;;;;5037412;28;20232;-64
2021/03/15 13:00:28;;;;;;;1.08;0.77;;;7.10;78.70;;;;;;5036019;28;20025;-64
2021/03/15 13:02:54;;;;;;;0.80;0.80;;;7.10;78.90;;;;;;5036196;28;20164;-64
2021/03/15 13:05:24;;;;;;;1.00;0.88;;;7.10;79.10;;;;;;5037904;28;20561;-64
2021/03/15 13:07:52;;;;;;;0.80;0.70;;;7.10;79.30;;;;;;5039059;28;20504;-65
2021/03/15 13:10:20;;;;;;;0.50;0.50;;;7.00;79.30;;;;;;5036156;28;20186;-64
2021/03/15 13:12:48;;;;;;;0.50;0.50;;;7.00;79.30;;;;;;5054773;28;20025;-64
2021/03/15 13:15:16;;;;;;;1.67;0.70;;;7.10;79.20;;;;;;5058261;28;20142;-64
2021/03/15 13:17:50;;;;;;;0.70;0.70;;;7.00;79.30;;;;;;5058005;28;20032;-64
2021/03/15 13:20:16;;;;;;;0.80;0.80;;;7.10;79.80;;;;;;5057989;28;20577;-65
2021/03/15 13:22:44;;;;;;;0.70;0.70;;;7.10;79.30;;;;;;5056765;28;20083;-64
2021/03/15 13:25:13;;;;;;;0.70;0.70;;;7.10;79.40;;;;;;5042634;28;20098;-64